Kerens, TX (75144)

7:43 AM CST on February 27, 2015 (GMT -0600)
Eureka-RC | Change Station
CLOSE
Current Station
Personal Weather Station
Location: Corsicana, TX
Elevation: 338 ft
Nearby Weather Stations

Elev 338 ft 32.02 °N, 96.24 °W | Updated 2 minutes ago

Overcast
Overcast
32.0 °F
Feels Like 22 °F
N
13.0
Wind Variable Wind from NNE
Gusts 17.0 mph

Today
High -- | Low -- °F
--% Chance of Precip.
Yesterday
High -- | Low -- °F
Precip. -- in
6:54 AM 6:20 PM
Waxing Gibbous, 69% visible
Pressure 30.40 in
Visibility 10.0 miles
Clouds Overcast 2900 ft
Windchill 22 °F
Dew Point 23 °F
Humidity 70%
Rainfall 0.00 in
Snow Depth Not available.
UV 0 out of 12
Pollen 5.10 out of 12
Air Quality Not available.
Flu Activity Not available.
SPECI KCRS 271321Z AUTO 04009KT 10SM OVC029 M01/M07 A3040 RMK AO2 T10061072

More Conditions Fewer Conditions

Pressure 30.40 in
Visibility 10.0 miles
Clouds Overcast 2900 ft
Windchill 22 °F
Dew Point 23 °F
Humidity 70%
Rainfall 0.00 in
Snow Depth Not available.
UV 0 out of 12
Pollen 5.10 out of 12
Air Quality Not available.
Flu Activity Not available.
SPECI KCRS 271321Z AUTO 04009KT 10SM OVC029 M01/M07 A3040 RMK AO2 T10061072

More Conditions Fewer Conditions

Nowcast | as of 7:42 am CST on February 27, 2015

An area of snow continues to move northeast across North Texas. The leading edge of the snow was approaching a line from Bowie to Fort Worth to Hillsboro at 730 am...moving northeast at 40 mph. Activity will spread across the Interstate 35 Corridor North of Hillsboro through the mid morning hours. Snow may occasionally reduce visibilities to a mile or less and create slick and hazardous roads. Please use caution and allow extra time to reach your destinations if driving this morning. Accumulations around an inch will be possible through 10 am.

×

10-Day Weather Forecast

Almanac

Astronomy

Feb. 27, 2015 Rise Set
Actual Time
Civil Twilight
Nautical Twilight
Astronomical Twilight
Moon
Length of Visible Light
Length of Day
Tomorrow will be .
, % of the Moon is Illuminated

Today's Extremes

State Highs State Lows

Community

WunderPhotos

Upload Photos

1,800,672 photos uploaded!

WunderBlogs® & News

Nearby

Air Quality

  Air Quality AQ Index Pollutant
Not available.

Snow Depth

Station Depth Elevation

Earthquake Activity

City Distance Mag. Time & Date
Minimum magnitude displayed is 2.5.

Coastal Water Temperatures

Place Temperature

Nearby Weather Stations